Stations météo

réclame
Mon MeteoGroup
Le Puy, France (7471): Température de l'air & dewpoint: 11.07.2018 13:00:00 - 17.07.2018 13:00:00 (CEST)Le Puy, France (7471): Température de l'air 5cm: 11.07.2018 13:00:00 - 17.07.2018 13:00:00 (CEST)Le Puy, France (7471): Température de l'air -20cm & Température de l'air -100cm: 11.07.2018 13:00:00 - 17.07.2018 13:00:00 (CEST)Le Puy, France (7471): Vitesse du vent & gusts: 11.07.2018 13:00:00 - 17.07.2018 13:00:00 (CEST)Le Puy, France (7471): Direction du vent: 11.07.2018 13:00:00 - 17.07.2018 13:00:00 (CEST)Le Puy, France (7471): visibility: 11.07.2018 13:00:00 - 17.07.2018 13:00:00 (CEST)Le Puy, France (7471): Ensoleillement: 11.07.2018 13:00:00 - 17.07.2018 13:00:00 (CEST)Le Puy, France (7471): Quantités de précipitations: 11.07.2018 13:00:00 - 17.07.2018 13:00:00 (CEST)
Date & Time tt [°C] td [°C] tt 5cm [°C] tt -20cm [°C] tt -100cm [°C] ff [km/h] ff [knt] fx [km/h] fx [knt] dd vv [km] sd [min] rr [mm]
17.07.2018 13:00:00 23,0 12,6 24,4 19,2 15,6 14 8 28 15 NW 20 40 0,0
17.07.2018 12:00:00 22,2 14,3 25,7 19,2 15,6 13 7 25 13 NW 20 53 0,0
17.07.2018 11:00:00 20,2 13,4 25,0 19,3 15,6 9 5 23 12 NNW 20 60 0,0
17.07.2018 10:00:00 19,2 13,1 19,5 19,4 15,6 13 7 22 12 WNW 20 49 0,0
17.07.2018 09:00:00 18,3 13,4 19,2 19,5 15,6 11 6 19 10 NW 20 60 0,0
17.07.2018 08:00:00 15,4 13,4 13,1 19,6 15,6 4 2 6 4 E 20 53 0,0
17.07.2018 07:00:00 13,7 11,9 12,6 19,8 15,6 0 0 17 9 N 19 15 0,0
17.07.2018 06:00:00 14,5 12,4 11,7 19,9 15,6 8 4 16 9 W 20 0 0,0
17.07.2018 05:00:00 14,1 12,5 11,8 20,0 15,6 4 2 12 7 SSW 9 0 0,0
17.07.2018 04:00:00 15,2 12,9 13,6 20,1 15,6 6 3 14 7 W 20 0 0,0
17.07.2018 03:00:00 15,5 12,6 14,4 20,2 15,6 6 4 18 10 W 20 0 0,0
17.07.2018 02:00:00 16,1 12,6 14,9 20,2 15,6 12 7 21 12 W 18 0 0,0
17.07.2018 01:00:00 15,2 12,1 13,1 20,3 15,6 11 6 18 10 WSW 20 0 0,0
17.07.2018 00:00:00 15,1 11,9 13,4 20,4 15,6 3 1 15 8 S 20 0 0,0
16.07.2018 23:00:00 16,1 12,6 15,4 20,4 15,6 10 5 41 22 NNE 19 0 0,0
16.07.2018 22:00:00 16,2 13,9 16,1 20,4 15,6 22 12 43 23 W 20 0 0,0
16.07.2018 21:00:00 18,0 10,8 17,8 20,4 15,6 26 14 42 23 WNW 20 0 0,0
16.07.2018 20:00:00 17,9 12,1 18,8 20,4 15,6 13 7 37 20 NW 20 25 0,0
16.07.2018 19:00:00 18,0 11,5 19,0 20,3 15,6 22 12 42 23 NW 20 4 0,0
16.07.2018 18:00:00 17,7 13,4 18,7 20,2 15,6 25 13 49 27 WNW 20 5 0,0
16.07.2018 17:00:00 18,2 13,1 19,1 20,2 15,6 14 8 35 19 W 20 0 0,0
16.07.2018 16:00:00 18,6 14,1 18,0 20,1 15,6 18 10 35 19 W 20 0 0,0
16.07.2018 15:00:00 18,3 12,3 17,2 20,1 15,6 22 12 45 24 NNW 20 5 0,2
16.07.2018 14:00:00 23,5 13,7 25,9 20,0 15,6 3 2 26 14 NNW 20 7 0,0
16.07.2018 13:00:00 22,1 13,4 25,6 19,9 15,5 22 12 32 17 NNW 20 22 0,0
16.07.2018 12:00:00 22,3 12,8 25,3 20,0 15,6 15 8 26 14 ENE 20 27 0,0
16.07.2018 11:00:00 22,6 14,2 28,6 20,1 15,5 8 4 17 9 ENE 20 60 0,0
16.07.2018 10:00:00 20,2 14,6 22,7 20,2 15,6 2 1 9 5 ENE 20 32 0,0
16.07.2018 09:00:00 17,7 13,8 17,0 20,3 15,6 2 1 6 3 N 20 32 0,0
16.07.2018 08:00:00 15,0 13,0 14,1 20,5 15,5 0 0 18 10 N 20 2 0,0
16.07.2018 07:00:00 13,2 12,1 10,7 20,6 15,6 2 1 12 6 WNW 18 22 0,0
16.07.2018 06:00:00 11,8 10,7 9,9 20,7 15,6 2 1 8 4 WNW 18 0 0,0
16.07.2018 05:00:00 12,4 11,3 10,9 20,9 15,6 4 2 6 3 SW 20 0 0,0
16.07.2018 04:00:00 12,8 11,7 10,4 21,0 15,6 4 2 8 4 NW 20 0 0,0
16.07.2018 03:00:00 13,4 11,6 12,0 21,1 15,6 4 2 8 4 SW 20 0 0,0
16.07.2018 02:00:00 14,1 12,3 11,8 21,1 15,6 2 1 8 4 SW 20 0 0,0
16.07.2018 01:00:00 15,9 13,2 13,2 21,2 15,5 0 0 7 4 N 20 0 0,0
16.07.2018 00:00:00 16,7 13,6 14,4 21,2 15,5 6 3 10 5 WNW 20 0 0,0
15.07.2018 23:00:00 17,5 14,0 14,6 21,1 15,5 3 2 10 6 WNW 20 0 0,0
15.07.2018 22:00:00 18,3 13,6 14,7 21,0 15,5 3 2 6 3 NW 17 0 0,0
15.07.2018 21:00:00 19,5 13,4 18,2 20,9 15,5 3 2 18 10 ENE 20 0 0,0
15.07.2018 20:00:00 21,8 13,2 22,1 20,8 15,5 13 7 40 21 ENE 20 16 0,0
15.07.2018 19:00:00 27,6 11,6 30,5 20,6 15,5 11 6 23 12 NNW 20 60 0,0
15.07.2018 18:00:00 28,5 11,5 33,8 20,4 15,5 11 6 22 12 W 20 60 0,0
15.07.2018 17:00:00 27,5 12,7 34,6 20,2 15,5 8 4 29 16 N 20 60 0,0
15.07.2018 16:00:00 25,5 13,0 26,4 20,0 15,5 14 8 21 11 NNW 20 17 0,0
15.07.2018 15:00:00 25,3 13,5 22,1 19,9 15,5 7 4 16 9 NNE 19 12 0,2
15.07.2018 14:00:00 27,8 11,8 36,3 19,8 15,5 8 5 24 13 NNW 20 60 0,0
15.07.2018 13:00:00 26,9 11,0 33,7 19,7 15,5 7 4 19 11 W 20 60 0,0
15.07.2018 12:00:00 24,9 12,8 30,3 19,8 15,5 5 3 15 8 NNE 20 54 0,0
15.07.2018 11:00:00 22,4 14,0 26,3 19,8 15,5 5 3 11 6 NW 20 53 0,0
15.07.2018 10:00:00 19,9 13,4 21,7 19,9 15,5 4 2 16 8 SE 20 46 0,0
15.07.2018 09:00:00 18,4 13,7 18,5 20,1 15,5 8 4 13 7 ESE 20 43 0,0
15.07.2018 08:00:00 16,1 13,0 14,6 20,2 15,6 0 0 16 9 N 20 9 0,0
15.07.2018 07:00:00 15,9 12,1 13,8 20,4 15,5 15 8 41 22 NNE 20 0 0,2
15.07.2018 06:00:00 13,6 13,0 12,2 20,4 15,5 3 2 10 6 W 19 0 0,0
15.07.2018 05:00:00 12,9 12,0 11,7 20,6 15,5 0 0 7 4 N 12 0 0,0
15.07.2018 04:00:00 12,8 11,7 11,3 20,7 15,5 0 0 10 6 N 19 0 0,0
15.07.2018 03:00:00 13,2 12,1 11,1 20,8 15,5 5 3 8 5 SW 19 0 0,0
15.07.2018 02:00:00 13,4 12,1 10,7 20,9 15,5 5 3 8 4 NW 20 0 0,0
15.07.2018 01:00:00 14,4 12,9 12,5 20,9 15,5 4 2 7 4 SW 20 0 0,0
15.07.2018 00:00:00 15,4 13,1 13,6 20,9 15,5 4 2 9 5 W 20 0 0,0
14.07.2018 23:00:00 16,1 13,6 14,8 20,9 15,5 6 3 7 4 SW 20 0 0,0
14.07.2018 22:00:00 17,7 14,4 16,2 20,8 15,5 4 2 8 5 SW 13 4 0,0
14.07.2018 21:00:00 19,0 15,1 18,4 20,7 15,5 5 3 11 6 NW 19 28 0,0
14.07.2018 20:00:00 20,9 15,2 23,7 20,5 15,5 10 5 14 8 NNE 20 48 0,0
14.07.2018 19:00:00 22,1 15,4 24,8 20,4 15,5 7 4 21 11 NNE 20 39 0,0
14.07.2018 18:00:00 23,3 15,6 21,5 20,2 15,5 10 5 44 24 N 20 19 0,2
14.07.2018 17:00:00 26,7 11,6 27,6 20,0 15,5 14 8 35 19 WSW 20 42 0,0
14.07.2018 16:00:00 25,6 14,1 26,7 19,8 15,5 7 4 22 12 S 20 10 0,0
14.07.2018 15:00:00 26,7 14,5 32,0 19,7 15,4 14 7 26 14 SE 20 39 0,0
14.07.2018 14:00:00 26,5 12,2 34,3 19,6 15,5 4 2 16 8 NNE 20 60 0,0
14.07.2018 13:00:00 24,9 11,5 28,8 19,7 15,5 8 5 15 8 ESE 20 41 0,0
14.07.2018 12:00:00 23,6 15,1 22,2 19,7 15,5 8 5 16 8 E 19 41 0,0
14.07.2018 11:00:00 20,3 14,2 20,0 19,8 15,5 9 5 14 8 ESE 20 6 0,0
14.07.2018 10:00:00 21,2 13,9 24,3 19,9 15,5 5 3 10 5 ESE 20 41 0,0
14.07.2018 09:00:00 19,5 13,7 20,6 20,0 15,5 3 2 7 4 SSE 18 58 0,0
14.07.2018 08:00:00 16,4 12,4 13,9 20,1 15,5 3 2 8 4 ENE 20 45 0,0
14.07.2018 07:00:00 13,7 11,2 11,2 20,2 15,5 5 3 9 5 WSW 20 14 0,0
14.07.2018 06:00:00 12,7 11,1 11,1 20,4 15,5 4 2 6 3 SSW 20 0 0,0
14.07.2018 05:00:00 13,6 11,6 11,7 20,5 15,5 3 2 5 3 NW 20 0 0,0
14.07.2018 04:00:00 14,1 11,8 11,8 20,5 15,5 4 2 7 4 SSW 20 0 0,0
14.07.2018 03:00:00 14,4 11,2 11,9 20,6 15,5 0 0 9 5 N 20 0 0,0
14.07.2018 02:00:00 15,2 11,2 11,5 20,7 15,5 6 4 8 5 SW 20 0 0,0
14.07.2018 01:00:00 14,9 10,9 12,3 20,7 15,5 0 0 9 5 N 20 0 0,0
14.07.2018 00:00:00 16,8 11,7 15,4 20,6 15,5 7 4 9 5 SW 20 0 0,0
13.07.2018 23:00:00 17,5 12,4 15,4 20,6 15,5 6 3 10 5 SW 20 0 0,0
13.07.2018 22:00:00 19,9 12,9 18,0 20,4 15,4 6 4 10 5 SW 1,8 0 0,0
13.07.2018 21:00:00 24,4 12,0 23,3 20,3 15,5 6 3 13 7 WNW 20 53 0,0
13.07.2018 20:00:00 25,7 10,7 27,6 20,1 15,5 9 5 27 15 N 20 56 0,0
13.07.2018 19:00:00 26,6 11,5 28,8 19,8 15,5 12 6 23 13 NNW 20 60 0,0
13.07.2018 18:00:00 27,2 10,0 31,8 19,6 15,5 14 7 29 16 WNW 20 60 0,0
13.07.2018 17:00:00 28,0 10,2 32,7 19,4 15,5 11 6 36 19 WNW 20 60 0,0
13.07.2018 16:00:00 27,3 11,7 28,9 19,2 15,4 12 7 29 16 WNW 20 56 0,0
13.07.2018 15:00:00 26,5 12,9 28,9 19,1 15,5 16 8 36 19 WNW 20 46 0,0
13.07.2018 14:00:00 27,3 12,1 28,9 19,0 15,4 10 5 19 11 W 20 39 0,0
13.07.2018 13:00:00 24,6 13,2 27,5 19,0 15,5 8 5 25 13 SE 20 28 0,0
13.07.2018 12:00:00 24,2 12,5 30,3 19,0 15,4 5 3 12 7 E 20 60 0,0
13.07.2018 11:00:00 21,7 11,1 27,6 19,0 15,4 4 2 12 6 E 20 60 0,0
13.07.2018 10:00:00 18,9 11,0 23,8 19,2 15,4 5 3 13 7 E 20 60 0,0
13.07.2018 09:00:00 16,6 10,4 19,7 19,3 15,4 4 2 7 4 E 20 60 0,0
13.07.2018 08:00:00 13,6 10,0 12,8 19,5 15,4 0 0 5 3 N 20 60 0,0
13.07.2018 07:00:00 10,8 8,7 7,5 19,6 15,4 2 1 13 7 WNW 20 25 0,0
13.07.2018 06:00:00 9,0 7,9 5,4 19,7 15,4 2 1 5 3 SW 20 0 0,0
13.07.2018 05:00:00 10,0 8,1 7,6 19,9 15,5 2 1 7 4 WSW 20 0 0,0
13.07.2018 04:00:00 10,7 8,5 8,0 20,0 15,5 3 2 6 3 SW 20 0 0,0
13.07.2018 03:00:00 11,7 8,7 10,5 20,0 15,4 5 3 10 5 WSW 20 0 0,0
13.07.2018 02:00:00 12,4 9,0 11,0 20,0 15,4 6 4 9 5 SW 20 0 0,0
13.07.2018 01:00:00 13,3 9,4 11,7 20,1 15,4 6 4 9 5 SW 20 0 0,0
13.07.2018 00:00:00 14,5 9,9 12,6 20,1 15,5 6 3 8 4 WSW 20 0 0,0
12.07.2018 23:00:00 16,5 10,1 15,2 20,0 15,4 5 3 7 4 SW 20 0 0,0
12.07.2018 22:00:00 19,7 9,6 18,3 19,9 15,4 4 2 10 5 WNW 6 0 0,0
12.07.2018 21:00:00 20,4 8,7 19,6 19,8 15,4 8 5 15 8 NW 20 0 0,0
12.07.2018 20:00:00 22,1 7,5 22,2 19,6 15,4 13 7 19 11 NNE 20 21 0,0
12.07.2018 19:00:00 24,4 7,1 25,4 19,4 15,4 10 5 26 14 NE 20 54 0,0
12.07.2018 18:00:00 24,8 7,4 25,7 19,2 15,4 5 3 24 13 E 20 49 0,0
12.07.2018 17:00:00 25,1 7,2 32,2 19,0 15,4 4 2 19 10 NNE 20 60 0,0
12.07.2018 16:00:00 23,8 6,1 30,7 18,8 15,4 9 5 19 10 NNE 20 54 0,0
12.07.2018 15:00:00 22,6 5,1 29,0 18,7 15,4 10 5 21 11 N 20 56 0,0
12.07.2018 14:00:00 21,8 6,5 27,2 18,6 15,4 9 5 18 10 NNE 20 50 0,0
12.07.2018 13:00:00 20,1 6,8 25,8 18,7 15,4 4 2 14 8 SE 20 42 0,0
12.07.2018 12:00:00 19,0 7,4 25,9 18,7 15,4 5 3 16 9 E 20 51 0,0
12.07.2018 11:00:00 18,0 9,3 24,7 18,8 15,4 8 4 15 8 ESE 20 60 0,0
12.07.2018 10:00:00 16,5 9,4 23,0 18,9 15,4 5 3 10 5 NNE 20 60 0,0
12.07.2018 09:00:00 14,9 10,1 17,0 19,1 15,4 3 2 6 3 E 20 60 0,0
12.07.2018 08:00:00 12,6 9,1 9,3 19,3 15,4 0 0 3 2 N 20 60 0,0
12.07.2018 07:00:00 7,4 6,5 2,0 19,5 15,4 2 1 15 8 WSW 19 18 0,0
12.07.2018 06:00:00 5,9 4,9 2,2 19,6 15,4 0 0 4 2 N 16 0 0,0
12.07.2018 05:00:00 7,9 6,7 4,9 19,8 15,4 4 2 8 5 WSW 20 0 0,0
12.07.2018 04:00:00 8,3 6,9 6,7 19,9 15,4 5 3 10 5 SW 20 0 0,0
12.07.2018 03:00:00 9,0 7,4 7,2 20,0 15,4 8 4 9 5 SW 20 0 0,0
12.07.2018 02:00:00 9,3 7,4 7,8 20,1 15,4 5 3 8 5 WSW 20 0 0,0
12.07.2018 01:00:00 10,0 7,8 8,5 20,2 15,4 6 3 8 4 SW 20 0 0,0
12.07.2018 00:00:00 11,6 8,6 8,1 20,2 15,4 5 3 8 4 WSW 20 0 0,0
11.07.2018 23:00:00 12,6 9,1 8,8 20,2 15,4 4 2 7 4 E 20 0 0,0
11.07.2018 22:00:00 13,9 8,9 10,3 20,2 15,4 4 2 14 8 E 1,6 5 0,0
11.07.2018 21:00:00 16,6 9,3 15,2 20,1 15,4 10 5 18 10 NE 20 2 0,0
11.07.2018 20:00:00 18,2 9,5 17,8 19,9 15,4 8 5 19 11 ENE 20 5 0,0
11.07.2018 19:00:00 19,7 9,0 20,7 19,8 15,4 14 8 24 13 ENE 20 10 0,0
11.07.2018 18:00:00 20,1 9,0 21,5 19,6 15,4 9 5 21 12 ENE 20 3 0,0
11.07.2018 17:00:00 22,5 10,0 24,7 19,4 15,4 14 8 32 17 NE 20 47 0,0
11.07.2018 16:00:00 21,8 9,7 23,6 19,2 15,4 13 7 29 16 ENE 20 30 0,0
11.07.2018 15:00:00 22,0 8,1 26,0 19,0 15,4 13 7 29 16 N 20 50 0,0
11.07.2018 14:00:00 21,0 8,6 28,5 19,0 15,4 12 6 26 14 N 20 60 0,0
11.07.2018 13:00:00 19,5 7,6 28,6 19,0 15,4 12 7 40 22 NNW 20 60 0,0

tt = Température de l'air
td = dewpoint
tt 5cm = Température de l'air 5cm
tt -20cm = Température de l'air -20cm
tt -100cm = Température de l'air -100cm
ff = Vitesse du vent
fx = gusts
dd = Direction du vent
vv = visibility
sd = Ensoleillement
rr = Quantités de précipitations

stations d'obs. à proximité